Time;durP1;ratioP1;P1;durP2;ratioP2;P2;SDS_P1;SDS_P2;PMS_P1;PMS_P2;Temp;Humidity;BMP_temperature;BMP_pressure;BME280_temperature;BME280_humidity;BME280_pressure;Samples;Min_cycle;Max_cycle;Signal;HPM_P1;HPM_P2
2021/11/11 00:01:28;;;;;;;;;;;;;;;-2.07;91.47;100880.98;1664872;86;20175;-68
2021/11/11 00:03:54;;;;;;;;;;;;;;;-2.07;91.64;100879.16;1665304;86;20128;-68
2021/11/11 00:06:21;;;;;;;;;;;;;;;-2.05;91.74;100879.86;1664611;86;21619;-68
2021/11/11 00:08:48;;;;;;;;;;;;;;;-2.01;91.80;100878.63;1665362;86;20150;-68
2021/11/11 00:13:55;;;;;;;;;;;;;;;-2.06;92.38;100876.87;1665435;86;20737;-67
2021/11/11 00:16:22;;;;;;;;;;;;;;;-2.11;92.75;100879.58;1665050;86;20145;-66
2021/11/11 00:18:49;;;;;;;;;;;;;;;-2.08;92.80;100875.34;1658285;86;21209;-66
2021/11/11 00:21:17;;;;;;;;;;;;;;;-2.11;93.03;100868.56;1638831;87;20150;-67
2021/11/11 00:23:45;;;;;;;;;;;;;;;-2.13;93.50;100866.59;1623235;87;20108;-69
2021/11/11 00:26:13;;;;;;;;;;;;;;;-2.17;93.71;100868.65;1658279;86;20150;-68
2021/11/11 00:28:39;;;;;;;;;;;;;;;-2.19;94.10;100867.13;1658069;86;20126;-65
2021/11/11 00:31:06;;;;;;;;;;;;;;;-2.18;94.24;100859.11;1657707;86;21172;-68
2021/11/11 00:33:34;;;;;;;;;;;;;;;-2.18;94.36;100858.25;1689793;84;20154;-67
2021/11/11 00:36:00;;;;;;;;;;;;;;;-2.13;94.23;100853.89;1660336;85;20133;-69
2021/11/11 00:38:27;;;;;;;;;;;;;;;-2.11;94.33;100847.52;1645654;86;20096;-67
2021/11/11 00:40:54;;;;;;;;;;;;;;;-2.13;94.48;100845.54;1635235;86;20120;-68
2021/11/11 00:43:21;;;;;;;;;;;;;;;-2.10;94.28;100847.06;1642204;86;21193;-67
2021/11/11 00:45:47;;;;;;;;;;;;;;;-2.06;94.46;100844.47;1642566;86;20447;-67
2021/11/11 00:48:14;;;;;;;;;;;;;;;-2.01;94.33;100838.30;1616102;88;20124;-67
2021/11/11 00:50:40;;;;;;;;;;;;;;;-2.02;94.29;100838.80;1649484;86;20185;-68
2021/11/11 00:53:07;;;;;;;;;;;;;;;-2.06;94.54;100837.41;1651720;86;20131;-68
2021/11/11 00:55:35;;;;;;;;;;;;;;;-2.07;94.79;100827.04;1635789;86;21190;-69
2021/11/11 00:58:11;;;;;;;;;;;;;;;-2.09;95.06;100829.80;1642113;86;20201;-68
2021/11/11 01:00:38;;;;;;;;;;;;;;;-2.11;95.53;100823.84;1638468;86;20173;-66
2021/11/11 01:03:06;;;;;;;;;;;;;;;-2.10;95.74;100809.73;1635449;86;20428;-67
2021/11/11 01:05:33;;;;;;;;;;;;;;;-2.09;96.01;100819.77;1648285;86;20217;-66
2021/11/11 01:08:00;;;;;;;;;;;;;;;-2.12;96.05;100818.25;1655158;86;21187;-67
2021/11/11 01:10:27;;;;;;;;;;;;;;;-2.18;96.53;100818.80;1646355;86;20102;-68
2021/11/11 01:12:54;;;;;;;;;;;;;;;-2.23;97.21;100818.38;1654967;86;20110;-67
2021/11/11 01:15:25;;;;;;;;;;;;;;;-2.28;97.87;100817.97;1638732;86;20173;-68
2021/11/11 01:17:51;;;;;;;;;;;;;;;-2.34;98.45;100804.91;1655665;86;20213;-68
2021/11/11 01:20:19;;;;;;;;;;;;;;;-2.27;98.81;100808.64;1609863;89;21793;-67
2021/11/11 01:22:46;;;;;;;;;;;;;;;-2.25;98.97;100804.57;1610978;86;20193;-67
2021/11/11 01:25:16;;;;;;;;;;;;;;;-2.24;98.85;100810.98;1635922;86;20108;-69
2021/11/11 01:27:44;;;;;;;;;;;;;;;-2.28;99.08;100811.40;1637510;86;20092;-66
2021/11/11 01:30:13;;;;;;;;;;;;;;;-2.32;99.85;100810.04;1655141;86;20175;-68
2021/11/11 01:32:43;;;;;;;;;;;;;;;-2.41;100.00;100803.31;1639721;86;21215;-67
2021/11/11 01:35:13;;;;;;;;;;;;;;;-2.39;100.00;100805.32;1639405;86;20152;-66
2021/11/11 01:37:41;;;;;;;;;;;;;;;-2.37;100.00;100803.39;1673034;86;20140;-67
2021/11/11 01:40:09;;;;;;;;;;;;;;;-2.37;100.00;100797.30;1642999;86;20089;-68
2021/11/11 01:42:43;;;;;;;;;;;;;;;-2.40;100.00;100798.88;1673321;86;20113;-65
2021/11/11 01:45:11;;;;;;;;;;;;;;;-2.44;100.00;100788.31;1644295;86;21808;-67
2021/11/11 01:47:39;;;;;;;;;;;;;;;-2.46;100.00;100781.04;1673058;86;20113;-68
2021/11/11 01:50:07;;;;;;;;;;;;;;;-2.49;100.00;100785.27;1669684;85;20111;-67
2021/11/11 01:52:36;;;;;;;;;;;;;;;-2.53;100.00;100779.93;1684924;85;20092;-69
2021/11/11 01:55:05;;;;;;;;;;;;;;;-2.59;100.00;100779.52;1689278;85;20506;-68
2021/11/11 01:57:33;;;;;;;;;;;;;;;-2.56;100.00;100775.78;1694960;84;21149;-67
2021/11/11 02:00:06;;;;;;;;;;;;;;;-2.60;100.00;100769.13;1663739;86;20105;-66
2021/11/11 02:02:35;;;;;;;;;;;;;;;-2.60;100.00;100766.50;1672661;85;20154;-67
2021/11/11 02:05:02;;;;;;;;;;;;;;;-2.62;100.00;100757.46;1677932;85;20144;-69
2021/11/11 02:07:29;;;;;;;;;;;;;;;-2.65;100.00;100748.52;1678295;85;20090;-68
2021/11/11 02:09:57;;;;;;;;;;;;;;;-2.62;100.00;100743.00;1677832;85;21117;-64
2021/11/11 02:12:29;;;;;;;;;;;;;;;-2.62;100.00;100740.86;1677447;85;20089;-69
2021/11/11 02:14:57;;;;;;;;;;;;;;;-2.63;100.00;100738.70;1678226;85;20124;-66
2021/11/11 02:17:29;;;;;;;;;;;;;;;-2.64;100.00;100733.59;1678351;85;20089;-65
2021/11/11 02:20:13;;;;;;;;;;;;;;;-2.65;100.00;100730.61;1677431;85;20156;-65
2021/11/11 02:22:58;;;;;;;;;;;;;;;-2.69;100.00;100735.33;1676049;85;21809;-69
2021/11/11 02:25:27;;;;;;;;;;;;;;;-2.80;100.00;100729.70;1674400;85;20463;-64
2021/11/11 02:27:57;;;;;;;;;;;;;;;-2.78;100.00;100720.38;1677845;85;20114;-67
2021/11/11 02:30:25;;;;;;;;;;;;;;;-2.77;100.00;100715.45;1673750;85;20212;-68
2021/11/11 02:32:53;;;;;;;;;;;;;;;-2.77;100.00;100712.00;1650369;85;20089;-70
2021/11/11 02:35:20;;;;;;;;;;;;;;;-2.78;100.00;100708.55;1650462;85;21154;-66
2021/11/11 02:37:48;;;;;;;;;;;;;;;-2.78;100.00;100709.87;1677491;85;20378;-66
2021/11/11 02:40:20;;;;;;;;;;;;;;;-2.84;100.00;100702.06;1666997;85;20490;-67
2021/11/11 02:42:47;;;;;;;;;;;;;;;-2.85;100.00;100697.76;1677749;85;20172;-67
2021/11/11 02:45:19;;;;;;;;;;;;;;;-2.85;100.00;100701.70;1674881;85;20133;-67
2021/11/11 02:47:48;;;;;;;;;;;;;;;-2.89;100.00;100702.11;1674899;85;21117;-68
2021/11/11 02:50:15;;;;;;;;;;;;;;;-2.95;100.00;100702.19;1677030;85;20116;-66
2021/11/11 02:52:45;;;;;;;;;;;;;;;-3.00;100.00;100691.27;1677820;85;20490;-68
2021/11/11 02:55:14;;;;;;;;;;;;;;;-2.98;100.00;100694.59;1677449;85;20124;-68
2021/11/11 02:57:43;;;;;;;;;;;;;;;-2.96;100.00;100690.03;1677506;85;20459;-67
2021/11/11 03:00:15;;;;;;;;;;;;;;;-2.97;100.00;100680.48;1677654;85;20104;-67
2021/11/11 03:02:44;;;;;;;;;;;;;;;-2.96;100.00;100673.41;1649433;85;20101;-68
2021/11/11 03:05:13;;;;;;;;;;;;;;;-2.95;100.00;100674.61;1676423;85;20677;-67
2021/11/11 03:07:41;;;;;;;;;;;;;;;-2.93;100.00;100669.22;1677263;85;20449;-66
2021/11/11 03:10:12;;;;;;;;;;;;;;;-2.94;100.00;100668.41;1677692;85;20501;-67
2021/11/11 03:12:41;;;;;;;;;;;;;;;-2.95;100.00;100659.33;1677760;85;21778;-68
2021/11/11 03:15:09;;;;;;;;;;;;;;;-2.91;100.00;100658.92;1677572;85;20120;-67
2021/11/11 03:17:37;;;;;;;;;;;;;;;-2.89;100.00;100656.13;1650889;85;20157;-68
2021/11/11 03:20:06;;;;;;;;;;;;;;;-2.88;100.00;100647.30;1678028;85;20141;-67
2021/11/11 03:22:35;;;;;;;;;;;;;;;-2.87;100.00;100641.89;1676188;85;20157;-68
2021/11/11 03:25:04;;;;;;;;;;;;;;;-2.91;100.00;100636.59;1677563;85;20121;-66
2021/11/11 03:27:33;;;;;;;;;;;;;;;-2.88;100.00;100631.05;1677496;85;20121;-68
2021/11/11 03:30:01;;;;;;;;;;;;;;;-2.86;100.00;100627.80;1677928;85;20096;-68
2021/11/11 03:32:28;;;;;;;;;;;;;;;-2.87;100.00;100625.30;1677142;85;20100;-66
2021/11/11 03:34:56;;;;;;;;;;;;;;;-2.90;100.00;100621.64;1677861;85;20125;-67
2021/11/11 03:37:22;;;;;;;;;;;;;;;-2.94;100.00;100625.05;1672118;84;21183;-69
2021/11/11 03:39:50;;;;;;;;;;;;;;;-2.93;100.00;100612.25;1642772;85;20084;-67
2021/11/11 03:42:18;;;;;;;;;;;;;;;-2.94;100.00;100618.94;1620183;87;20090;-68
2021/11/11 03:44:45;;;;;;;;;;;;;;;-2.95;100.00;100620.75;1642055;86;20091;-68
2021/11/11 03:47:14;;;;;;;;;;;;;;;-2.96;100.00;100619.10;1667073;86;20153;-66
2021/11/11 03:49:41;;;;;;;;;;;;;;;-3.00;100.00;100621.66;1667119;85;21854;-67
2021/11/11 03:52:08;;;;;;;;;;;;;;;-3.00;100.00;100621.66;1666199;86;20089;-66
2021/11/11 03:54:36;;;;;;;;;;;;;;;-2.96;100.00;100626.13;1667283;86;20118;-67
2021/11/11 03:57:04;;;;;;;;;;;;;;;-2.99;100.00;100624.61;1646111;86;20149;-68
2021/11/11 03:59:34;;;;;;;;;;;;;;;-3.02;100.00;100620.95;1666683;86;20217;-68
2021/11/11 04:02:02;;;;;;;;;;;;;;;-3.03;100.00;100621.94;1666754;86;21842;-68
2021/11/11 04:04:28;;;;;;;;;;;;;;;-3.05;100.00;100621.25;1667238;86;20150;-68
2021/11/11 04:06:55;;;;;;;;;;;;;;;-3.04;100.00;100621.58;1667670;86;20136;-68
2021/11/11 04:09:21;;;;;;;;;;;;;;;-3.07;100.00;100610.87;1667678;86;20690;-67
2021/11/11 04:11:50;;;;;;;;;;;;;;;-3.11;100.00;100617.39;1666767;86;20122;-68
2021/11/11 04:14:19;;;;;;;;;;;;;;;-3.09;100.00;100618.55;1652740;86;21973;-67
2021/11/11 04:16:47;;;;;;;;;;;;;;;-3.12;100.00;100609.14;1666119;86;20122;-67
2021/11/11 04:19:15;;;;;;;;;;;;;;;-3.11;100.00;100600.78;1667865;86;20197;-68
2021/11/11 04:21:43;;;;;;;;;;;;;;;-3.17;100.00;100603.97;1667226;86;20093;-68
2021/11/11 04:24:12;;;;;;;;;;;;;;;-3.20;100.00;100603.77;1665916;85;20185;-66
2021/11/11 04:26:53;;;;;;;;;;;;;;;-3.22;100.00;100587.80;1666859;86;21135;-67
2021/11/11 04:29:28;;;;;;;;;;;;;;;-3.22;100.00;100593.06;1667108;86;20447;-67
2021/11/11 04:31:58;;;;;;;;;;;;;;;-3.21;100.00;100593.39;1690859;84;20148;-67
2021/11/11 04:34:26;;;;;;;;;;;;;;;-3.20;100.00;100590.64;1656296;86;20146;-66
2021/11/11 04:53:04;;;;;;;;;;;;;;;-3.23;100.00;100572.55;1642429;87;22068;-69
2021/11/11 05:03:33;;;;;;;;;;;;;;;-3.12;100.00;100551.86;1656270;86;20150;-68
2021/11/11 05:05:56;;;;;;;;;;;;;;;-3.17;100.00;100553.59;1655663;86;21798;-68
2021/11/11 05:08:24;;;;;;;;;;;;;;;-3.11;100.00;100561.38;1651574;85;20154;-67
2021/11/11 05:10:52;;;;;;;;;;;;;;;-3.11;100.00;100570.11;1653110;86;20463;-69
2021/11/11 05:13:20;;;;;;;;;;;;;;;-3.11;100.00;100564.00;1656247;86;20158;-67
2021/11/11 05:15:47;;;;;;;;;;;;;;;-3.11;100.00;100558.30;1655388;86;20195;-68
2021/11/11 05:18:15;;;;;;;;;;;;;;;-3.14;100.00;100541.48;1632514;86;21973;-67
2021/11/11 05:20:42;;;;;;;;;;;;;;;-3.13;100.00;100540.53;1621450;87;20118;-69
2021/11/11 05:23:09;;;;;;;;;;;;;;;-3.01;100.00;100546.45;1641520;87;20155;-67
2021/11/11 05:25:36;;;;;;;;;;;;;;;-2.90;100.00;100558.09;1641079;87;20091;-67
2021/11/11 05:28:02;;;;;;;;;;;;;;;-2.86;100.00;100566.05;1640843;87;20208;-68
2021/11/11 05:30:29;;;;;;;;;;;;;;;-2.78;100.00;100577.66;1654353;86;21916;-68
2021/11/11 05:32:58;;;;;;;;;;;;;;;-2.76;100.00;100582.28;1656091;86;20131;-67
2021/11/11 05:35:27;;;;;;;;;;;;;;;-2.73;100.00;100582.00;1656542;86;20150;-67
2021/11/11 05:37:55;;;;;;;;;;;;;;;-2.72;100.00;100574.44;1664187;85;20136;-68
2021/11/11 05:40:23;;;;;;;;;;;;;;;-2.69;100.00;100578.12;1666983;84;20146;-67
2021/11/11 05:42:50;;;;;;;;;;;;;;;-2.60;100.00;100570.67;1667643;86;20527;-68
2021/11/11 05:45:18;;;;;;;;;;;;;;;-2.44;100.00;100569.58;1667108;84;20133;-68
2021/11/11 05:47:45;;;;;;;;;;;;;;;-2.33;100.00;100571.19;1667763;84;20135;-68
2021/11/11 05:50:14;;;;;;;;;;;;;;;-2.24;100.00;100560.30;1646778;86;20142;-68
2021/11/11 05:52:42;;;;;;;;;;;;;;;-2.19;100.00;100555.42;1667879;86;20090;-68
2021/11/11 05:55:10;;;;;;;;;;;;;;;-2.13;100.00;100555.31;1667731;84;21170;-68
2021/11/11 05:57:39;;;;;;;;;;;;;;;-2.01;100.00;100558.09;1665407;83;20177;-67
2021/11/11 06:00:15;;;;;;;;;;;;;;;-1.81;100.00;100567.53;1660197;86;20152;-68
2021/11/11 06:02:47;;;;;;;;;;;;;;;-1.59;100.00;100564.96;1667479;84;20446;-66
2021/11/11 06:05:14;;;;;;;;;;;;;;;-1.34;100.00;100583.13;1665739;84;20118;-68
2021/11/11 06:07:41;;;;;;;;;;;;;;;-1.11;100.00;100580.83;1667514;84;21326;-68
2021/11/11 06:10:09;;;;;;;;;;;;;;;-0.93;100.00;100578.66;1669559;83;20186;-68
2021/11/11 06:12:36;;;;;;;;;;;;;;;-0.77;100.00;100584.55;1667042;86;20149;-68
2021/11/11 06:15:05;;;;;;;;;;;;;;;-0.62;100.00;100595.35;1667000;84;20422;-69
2021/11/11 06:17:33;;;;;;;;;;;;;;;-0.43;100.00;100593.82;1662843;84;20173;-69
2021/11/11 06:20:01;;;;;;;;;;;;;;;-0.19;100.00;100592.30;1674221;84;21881;-69
2021/11/11 06:22:29;;;;;;;;;;;;;;;-0.11;100.00;100598.92;1688135;84;20171;-68
2021/11/11 06:24:55;;;;;;;;;;;;;;;0.08;99.45;100589.42;1669544;85;20158;-68
2021/11/11 06:27:22;;;;;;;;;;;;;;;0.14;97.35;100599.33;1666417;83;20093;-69
2021/11/11 06:29:50;;;;;;;;;;;;;;;0.32;96.42;100599.70;1670129;84;20246;-69
2021/11/11 06:32:16;;;;;;;;;;;;;;;0.32;94.92;100590.00;1670843;84;21142;-69
2021/11/11 06:34:43;;;;;;;;;;;;;;;0.24;93.27;100589.14;1650144;86;20169;-67
2021/11/11 06:37:10;;;;;;;;;;;;;;;0.43;92.71;100583.57;1667571;83;20109;-67
2021/11/11 06:39:37;;;;;;;;;;;;;;;0.50;92.06;100585.08;1666760;86;20129;-68
2021/11/11 06:42:04;;;;;;;;;;;;;;;0.65;91.75;100576.83;1669340;84;20200;-67
2021/11/11 06:44:31;;;;;;;;;;;;;;;0.63;90.72;100572.20;1666444;86;22358;-69
2021/11/11 06:46:58;;;;;;;;;;;;;;;0.72;90.07;100566.44;1667114;86;20154;-65
2021/11/11 06:49:25;;;;;;;;;;;;;;;0.87;88.94;100567.42;1685366;84;20153;-67
2021/11/11 06:51:52;;;;;;;;;;;;;;;0.92;88.33;100555.85;1670611;84;20166;-68
2021/11/11 06:54:18;;;;;;;;;;;;;;;1.10;86.29;100559.63;1666011;84;20484;-67
2021/11/11 06:56:45;;;;;;;;;;;;;;;1.02;83.96;100555.17;1667083;86;21128;-67
2021/11/11 06:59:11;;;;;;;;;;;;;;;1.15;84.16;100545.91;1666863;86;20153;-68
2021/11/11 07:01:38;;;;;;;;;;;;;;;1.33;82.57;100556.30;1653245;85;20221;-68
2021/11/11 07:04:06;;;;;;;;;;;;;;;1.23;81.22;100555.17;1666193;86;20676;-69
2021/11/11 07:06:33;;;;;;;;;;;;;;;1.26;80.86;100566.73;1663464;86;20176;-68
2021/11/11 07:09:02;;;;;;;;;;;;;;;1.36;80.87;100545.37;1661803;86;21253;-70
2021/11/11 07:11:28;;;;;;;;;;;;;;;1.23;79.68;100536.66;1673856;84;20099;-69
2021/11/11 07:13:57;;;;;;;;;;;;;;;1.56;80.42;100545.81;1675442;84;20153;-69
2021/11/11 07:16:24;;;;;;;;;;;;;;;1.73;79.44;100552.69;1693190;84;20623;-70
2021/11/11 07:18:51;;;;;;;;;;;;;;;1.83;78.05;100544.55;1688653;84;20229;-69
2021/11/11 07:21:19;;;;;;;;;;;;;;;2.17;75.83;100545.53;1678571;84;21078;-69
2021/11/11 07:23:45;;;;;;;;;;;;;;;2.27;75.33;100548.77;1679014;84;20176;-68
2021/11/11 07:26:13;;;;;;;;;;;;;;;2.34;74.22;100548.91;1671819;84;20173;-69
2021/11/11 07:28:41;;;;;;;;;;;;;;;2.23;73.92;100551.47;1675920;84;20275;-71
2021/11/11 07:31:08;;;;;;;;;;;;;;;2.25;73.29;100549.45;1692364;84;20147;-70
2021/11/11 07:33:35;;;;;;;;;;;;;;;2.09;73.20;100535.81;1672383;85;21119;-68
2021/11/11 07:36:03;;;;;;;;;;;;;;;2.37;72.94;100543.25;1682977;85;20138;-70
2021/11/11 07:38:31;;;;;;;;;;;;;;;2.34;71.31;100540.45;1683048;85;20144;-70
2021/11/11 07:40:57;;;;;;;;;;;;;;;2.28;71.46;100517.33;1663556;85;20684;-70
2021/11/11 07:43:27;;;;;;;;;;;;;;;2.14;71.82;100535.30;1692974;84;20159;-71
2021/11/11 07:45:55;;;;;;;;;;;;;;;2.22;71.94;100538.39;1693293;84;21538;-70
2021/11/11 07:48:22;;;;;;;;;;;;;;;2.48;70.72;100532.76;1692952;84;20495;-71
2021/11/11 07:50:49;;;;;;;;;;;;;;;2.67;69.98;100534.09;1686061;84;20162;-71
2021/11/11 07:53:16;;;;;;;;;;;;;;;2.51;69.90;100531.89;1673661;84;20174;-71
2021/11/11 07:55:43;;;;;;;;;;;;;;;2.48;69.89;100532.76;1672261;85;20176;-73
2021/11/11 07:58:12;;;;;;;;;;;;;;;2.64;69.28;100504.78;1673435;85;20089;-71
2021/11/11 08:00:39;;;;;;;;;;;;;;;2.45;69.25;100486.72;1677189;85;20128;-71
2021/11/11 08:03:05;;;;;;;;;;;;;;;2.76;69.17;100502.02;1673441;85;20133;-72
2021/11/11 08:05:32;;;;;;;;;;;;;;;2.68;69.30;100516.69;1673939;85;20183;-73
2021/11/11 08:08:00;;;;;;;;;;;;;;;2.84;69.22;100506.94;1673496;84;20195;-71
2021/11/11 08:10:27;;;;;;;;;;;;;;;2.97;68.34;100508.48;1679942;83;21865;-72
2021/11/11 08:12:55;;;;;;;;;;;;;;;3.22;67.29;100512.52;1638100;86;20127;-73
2021/11/11 08:15:23;;;;;;;;;;;;;;;3.20;66.90;100472.08;1674308;85;20097;-74
2021/11/11 08:17:50;;;;;;;;;;;;;;;3.25;66.84;100498.58;1674452;85;20158;-72
2021/11/11 08:20:17;;;;;;;;;;;;;;;3.30;66.94;100500.17;1674623;85;20187;-72
2021/11/11 08:22:44;;;;;;;;;;;;;;;3.16;66.76;100492.52;1674255;85;20610;-68
2021/11/11 08:25:11;;;;;;;;;;;;;;;3.38;66.92;100496.95;1675712;85;20124;-72
2021/11/11 08:27:39;;;;;;;;;;;;;;;3.28;66.42;100484.42;1680989;85;20211;-72
2021/11/11 08:30:07;;;;;;;;;;;;;;;3.44;66.73;100496.70;1680426;85;20369;-72
2021/11/11 08:32:33;;;;;;;;;;;;;;;3.60;65.77;100479.73;1662439;85;20159;-71
2021/11/11 08:35:00;;;;;;;;;;;;;;;3.83;65.42;100484.42;1680505;85;21150;-71
2021/11/11 08:37:28;;;;;;;;;;;;;;;3.70;65.10;100483.43;1680418;85;20152;-74
2021/11/11 08:39:54;;;;;;;;;;;;;;;3.87;64.71;100480.87;1680563;85;20207;-74
2021/11/11 08:42:21;;;;;;;;;;;;;;;3.97;64.45;100473.45;1680559;85;20199;-72
2021/11/11 08:44:54;;;;;;;;;;;;;;;4.07;64.08;100471.31;1679857;83;20235;-72
2021/11/11 08:47:23;;;;;;;;;;;;;;;4.20;64.47;100467.95;1683822;84;21153;-73
2021/11/11 08:49:52;;;;;;;;;;;;;;;4.11;64.57;100461.63;1691531;84;20111;-72
2021/11/11 08:52:22;;;;;;;;;;;;;;;4.39;63.57;100464.36;1681945;85;20450;-71
2021/11/11 08:54:52;;;;;;;;;;;;;;;4.33;64.07;100452.63;1685317;84;20934;-72
2021/11/11 08:57:19;;;;;;;;;;;;;;;4.40;63.44;100460.67;1679138;84;20128;-68
2021/11/11 08:59:51;;;;;;;;;;;;;;;4.39;63.24;100459.05;1677810;85;21544;-71
2021/11/11 09:02:14;;;;;;;;;;;;;;;4.61;63.50;100462.50;1674498;85;20179;-72
2021/11/11 09:04:42;;;;;;;;;;;;;;;4.55;62.75;100445.97;1675195;85;20559;-71
2021/11/11 09:07:12;;;;;;;;;;;;;;;4.65;62.46;100439.80;1672951;85;20226;-74
2021/11/11 09:09:46;;;;;;;;;;;;;;;4.76;62.36;100422.00;1688813;85;20447;-73
2021/11/11 09:12:14;;;;;;;;;;;;;;;4.73;62.20;100410.42;1678886;84;20832;-73
2021/11/11 09:14:43;;;;;;;;;;;;;;;4.72;62.80;100399.45;1663097;84;20181;-72
2021/11/11 09:17:17;;;;;;;;;;;;;;;5.12;61.89;100387.22;1679921;84;20157;-71
2021/11/11 09:19:41;;;;;;;;;;;;;;;5.16;61.26;100387.11;1654971;84;20201;-72
2021/11/11 09:22:10;;;;;;;;;;;;;;;5.40;60.73;100406.78;1699151;83;20195;-72
2021/11/11 09:24:38;;;;;;;;;;;;;;;5.47;59.90;100382.34;1685384;84;22578;-73
2021/11/11 09:27:08;;;;;;;;;;;;;;;5.48;60.27;100391.95;1685773;84;20167;-69
2021/11/11 09:29:39;;;;;;;;;;;;;;;5.11;60.64;100375.43;1673736;84;20203;-74
2021/11/11 09:32:08;;;;;;;;;;;;;;;4.76;62.32;100396.73;1671483;84;20171;-74
2021/11/11 09:34:34;;;;;;;;;;;;;;;4.59;63.23;100408.69;1673264;84;20238;-74
2021/11/11 09:37:04;;;;;;;;;;;;;;;4.75;62.77;100396.91;1673031;85;21161;-75
2021/11/11 09:39:33;;;;;;;;;;;;;;;4.87;62.91;100361.59;1665638;84;20515;-72
2021/11/11 09:42:09;;;;;;;;;;;;;;;5.10;62.39;100358.64;1677100;84;20549;-74
2021/11/11 09:44:39;;;;;;;;;;;;;;;5.24;61.81;100346.22;1665855;84;20164;-73
2021/11/11 09:47:09;;;;;;;;;;;;;;;5.53;60.97;100353.05;1684349;84;20451;-70
2021/11/11 09:49:41;;;;;;;;;;;;;;;5.34;61.19;100353.80;1646859;86;22096;-73
2021/11/11 09:52:07;;;;;;;;;;;;;;;5.25;61.24;100371.81;1669207;84;20295;-70
2021/11/11 09:59:55;;;;;;;;;;;;;;;5.24;62.70;100382.16;1668479;84;20189;-71
2021/11/11 10:02:25;;;;;;;;;;;;;;;5.15;63.13;100379.34;1664465;84;21197;-72
2021/11/11 10:04:52;;;;;;;;;;;;;;;5.02;62.88;100380.11;1674522;84;20201;-72
2021/11/11 10:07:18;;;;;;;;;;;;;;;4.96;63.83;100388.05;1647192;85;20739;-71
2021/11/11 10:09:47;;;;;;;;;;;;;;;5.06;63.90;100381.34;1644996;86;20192;-72
2021/11/11 10:12:21;;;;;;;;;;;;;;;5.26;63.84;100374.77;1667834;84;20661;-72
2021/11/11 10:14:50;;;;;;;;;;;;;;;5.26;63.29;100366.78;1672215;84;21179;-67
2021/11/11 10:17:19;;;;;;;;;;;;;;;5.23;63.35;100363.20;1652575;85;20440;-71
2021/11/11 10:19:50;;;;;;;;;;;;;;;5.16;63.78;100368.48;1658741;86;20134;-71
2021/11/11 10:22:22;;;;;;;;;;;;;;;5.22;63.61;100352.73;1635408;85;20139;-71
2021/11/11 10:25:00;;;;;;;;;;;;;;;5.51;63.83;100345.80;1635921;86;20148;-73
2021/11/11 10:27:32;;;;;;;;;;;;;;;5.71;62.34;100360.48;1658637;86;21220;-73
2021/11/11 10:30:25;;;;;;;;;;;;;;;5.82;62.24;100351.58;1656551;85;20434;-74
2021/11/11 10:33:09;;;;;;;;;;;;;;;5.83;62.14;100336.73;1668417;85;20447;-68
2021/11/11 10:35:38;;;;;;;;;;;;;;;5.89;62.15;100330.58;1668205;84;20176;-74
2021/11/11 10:38:08;;;;;;;;;;;;;;;5.82;62.56;100323.61;1638224;86;20184;-73
2021/11/11 10:40:45;;;;;;;;;;;;;;;5.64;63.29;100321.55;1674068;85;21813;-74
2021/11/11 10:43:15;;;;;;;;;;;;;;;5.51;63.36;100305.01;1677591;85;20137;-72
2021/11/11 10:45:47;;;;;;;;;;;;;;;5.45;63.98;100309.83;1675374;83;20239;-72
2021/11/11 10:48:17;;;;;;;;;;;;;;;5.45;64.43;100301.83;1675638;85;20237;-74
2021/11/11 10:50:46;;;;;;;;;;;;;;;5.47;64.28;100293.95;1679271;85;20263;-72
2021/11/11 10:53:14;;;;;;;;;;;;;;;5.50;64.46;100303.38;1677846;83;21120;-74
2021/11/11 10:55:44;;;;;;;;;;;;;;;5.55;64.88;100290.27;1675481;83;20208;-74
2021/11/11 10:58:17;;;;;;;;;;;;;;;5.59;65.45;100291.52;1659107;83;20470;-72
2021/11/11 11:00:57;;;;;;;;;;;;;;;5.60;65.18;100285.16;1670549;83;20222;-71
2021/11/11 11:03:32;;;;;;;;;;;;;;;5.59;64.80;100288.86;1674131;85;20278;-72
2021/11/11 11:06:12;;;;;;;;;;;;;;;5.52;64.87;100289.36;1678639;83;21114;-69
2021/11/11 11:08:49;;;;;;;;;;;;;;;5.57;65.16;100289.05;1681974;85;20433;-72
2021/11/11 11:11:24;;;;;;;;;;;;;;;5.44;65.21;100284.20;1683856;85;20113;-72
2021/11/11 11:13:53;;;;;;;;;;;;;;;5.36;65.54;100283.88;1683924;83;20274;-73
2021/11/11 11:16:22;;;;;;;;;;;;;;;5.38;66.08;100284.50;1680418;83;20142;-71
2021/11/11 11:19:02;;;;;;;;;;;;;;;5.41;66.30;100285.42;1683283;83;21108;-69
2021/11/11 11:21:30;;;;;;;;;;;;;;;5.48;65.94;100280.94;1673282;85;20148;-73
2021/11/11 11:24:02;;;;;;;;;;;;;;;5.55;65.83;100271.12;1683514;84;20120;-71
2021/11/11 11:26:35;;;;;;;;;;;;;;;5.50;66.17;100251.45;1688392;83;20161;-72
2021/11/11 11:29:10;;;;;;;;;;;;;;;5.62;66.00;100255.16;1684893;83;20200;-72
2021/11/11 11:31:47;;;;;;;;;;;;;;;5.76;65.87;100261.31;1672307;85;21141;-72
2021/11/11 11:34:21;;;;;;;;;;;;;;;5.92;65.48;100257.41;1679140;83;20422;-70
2021/11/11 11:36:57;;;;;;;;;;;;;;;6.07;65.11;100253.22;1682395;83;20123;-70
2021/11/11 11:39:35;;;;;;;;;;;;;;;6.10;65.15;100254.97;1674057;85;20193;-71
2021/11/11 11:42:07;;;;;;;;;;;;;;;6.12;64.79;100249.41;1689395;84;20175;-70
2021/11/11 11:44:41;;;;;;;;;;;;;;;6.23;64.96;100247.47;1683881;83;21895;-70
2021/11/11 11:47:32;;;;;;;;;;;;;;;6.27;65.31;100241.19;1685164;84;20137;-71
2021/11/11 11:49:57;;;;;;;;;;;;;;;6.13;64.84;100248.41;1692968;84;20147;-70
2021/11/11 11:52:28;;;;;;;;;;;;;;;6.18;64.63;100244.09;1693024;84;20182;-72
2021/11/11 11:55:05;;;;;;;;;;;;;;;6.30;64.70;100246.12;1686736;84;20243;-71
2021/11/11 12:06:02;;;;;;;;;;;;;;;6.37;64.82;100236.23;1665298;85;20144;-72
2021/11/11 12:40:08;;;;;;;;;;;;;;;6.68;64.66;100212.84;1668475;84;21178;-68
2021/11/11 12:42:43;;;;;;;;;;;;;;;6.62;64.85;100215.05;1660867;85;20157;-70
2021/11/11 12:45:34;;;;;;;;;;;;;;;6.63;64.85;100216.67;1661877;85;20226;-70
2021/11/11 12:48:13;;;;;;;;;;;;;;;6.77;64.59;100208.91;1640514;86;20211;-69
2021/11/11 12:51:02;;;;;;;;;;;;;;;6.76;64.58;100209.12;1640320;86;20162;-71
2021/11/11 12:53:37;;;;;;;;;;;;;;;6.94;64.48;100207.91;1672891;84;21182;-74
2021/11/11 12:56:13;;;;;;;;;;;;;;;6.92;63.89;100195.81;1696068;84;20146;-70
2021/11/11 12:58:45;;;;;;;;;;;;;;;6.99;64.16;100208.08;1695535;84;20452;-70
2021/11/11 13:01:22;;;;;;;;;;;;;;;7.08;64.34;100210.81;1695180;84;20103;-71
2021/11/11 13:04:10;;;;;;;;;;;;;;;7.06;63.67;100202.72;1662405;86;20164;-71
2021/11/11 13:06:59;;;;;;;;;;;;;;;7.00;64.30;100208.89;1661989;86;21821;-70
2021/11/11 13:09:34;;;;;;;;;;;;;;;7.13;64.06;100208.83;1661436;86;20620;-74
2021/11/11 13:12:10;;;;;;;;;;;;;;;7.21;63.63;100199.74;1662704;86;20133;-68
2021/11/11 13:14:51;;;;;;;;;;;;;;;7.08;63.47;100185.97;1635475;87;20108;-68
2021/11/11 13:17:20;;;;;;;;;;;;;;;7.16;63.39;100191.56;1626743;86;20146;-72
2021/11/11 13:20:05;;;;;;;;;;;;;;;7.06;63.76;100190.70;1662646;86;20553;-72
2021/11/11 13:22:43;;;;;;;;;;;;;;;7.05;63.79;100191.19;1640936;86;20542;-72
2021/11/11 13:54:24;;;;;;;;;;;;;;;6.22;69.20;100166.67;1550039;92;20175;-71
2021/11/11 13:59:46;;;;;;;;;;;;;;;5.95;70.77;100157.09;1546678;92;20213;-72
2021/11/11 14:28:16;;;;;;;;;;;;;;;4.91;79.03;100128.74;1639490;87;20208;-74
2021/11/11 16:01:14;;;;;;;;;;;;;;;2.85;99.47;100087.83;1635628;87;20168;-71
2021/11/11 16:20:04;;;;;;;;;;;;;;;2.92;100.00;100077.29;1684110;85;20168;-73
2021/11/11 16:27:57;;;;;;;;;;;;;;;2.96;100.00;100069.25;1685280;83;20177;-70
2021/11/11 16:30:30;;;;;;;;;;;;;;;2.90;100.00;100080.12;1682554;83;20112;-73
2021/11/11 16:33:02;;;;;;;;;;;;;;;2.84;100.00;100080.05;1678066;83;20516;-71
2021/11/11 16:35:35;;;;;;;;;;;;;;;2.77;100.00;100082.16;1674975;83;21088;-74
2021/11/11 16:38:12;;;;;;;;;;;;;;;2.73;100.00;100083.53;1678602;83;20131;-71
2021/11/11 16:40:51;;;;;;;;;;;;;;;2.68;100.00;100082.47;1674053;83;20233;-69
2021/11/11 16:43:28;;;;;;;;;;;;;;;2.57;100.00;100076.66;1680970;84;20569;-71
2021/11/11 16:46:12;;;;;;;;;;;;;;;2.52;100.00;100081.71;1677015;84;20424;-71
2021/11/11 16:48:45;;;;;;;;;;;;;;;2.50;100.00;100076.25;1677257;84;21145;-71
2021/11/11 16:51:19;;;;;;;;;;;;;;;2.43;100.00;100075.39;1661337;86;20505;-72
2021/11/11 16:53:53;;;;;;;;;;;;;;;2.36;100.00;100073.98;1675050;84;20533;-70